createdAt,value
2023-01-06T00:01:28.383Z,11.90
2023-01-06T00:03:57.280Z,11.80
2023-01-06T00:06:24.727Z,11.80
2023-01-06T00:08:51.760Z,11.80
2023-01-06T00:11:18.840Z,11.70
2023-01-06T00:13:45.967Z,11.80
2023-01-06T00:16:15.206Z,11.90
2023-01-06T00:18:43.732Z,11.90
2023-01-06T00:21:12.322Z,11.90
2023-01-06T00:23:39.645Z,12.00
2023-01-06T00:26:08.020Z,11.90
2023-01-06T00:28:35.750Z,11.70
2023-01-06T00:31:06.577Z,11.60
2023-01-06T00:33:33.578Z,11.50
2023-01-06T00:36:02.488Z,11.50
2023-01-06T00:38:29.466Z,11.60
2023-01-06T00:40:56.432Z,11.60
2023-01-06T00:43:23.430Z,11.60
2023-01-06T00:45:50.432Z,11.50
2023-01-06T00:48:17.590Z,11.60
2023-01-06T00:50:44.579Z,11.60
2023-01-06T00:53:12.987Z,11.70
2023-01-06T00:55:39.956Z,11.70
2023-01-06T00:58:07.007Z,11.60
2023-01-06T01:00:33.980Z,11.60
2023-01-06T01:03:01.031Z,11.60
2023-01-06T01:05:28.075Z,11.70
2023-01-06T01:07:55.141Z,11.60
2023-01-06T01:10:23.469Z,11.70
2023-01-06T01:12:53.396Z,11.70
2023-01-06T01:15:20.374Z,11.60
2023-01-06T01:17:47.353Z,11.60
2023-01-06T01:20:14.397Z,11.60
2023-01-06T01:22:41.457Z,11.70
2023-01-06T01:25:09.342Z,11.70
2023-01-06T01:27:37.697Z,11.80
2023-01-06T01:30:05.460Z,11.70
2023-01-06T01:32:32.427Z,11.50
2023-01-06T01:34:59.462Z,11.60
2023-01-06T01:37:26.412Z,11.70
2023-01-06T01:39:53.385Z,11.60
2023-01-06T01:42:21.232Z,11.40
2023-01-06T01:45:02.426Z,11.30
2023-01-06T01:47:39.011Z,11.30
2023-01-06T01:50:11.115Z,11.30
2023-01-06T01:52:38.982Z,11.40
2023-01-06T01:55:08.023Z,11.40
2023-01-06T01:57:40.040Z,11.40
2023-01-06T02:00:09.869Z,11.30
2023-01-06T02:02:37.463Z,11.30
2023-01-06T02:05:06.931Z,11.30
2023-01-06T02:07:34.200Z,11.40
2023-01-06T02:10:13.657Z,11.50
2023-01-06T02:12:41.733Z,11.50
2023-01-06T02:15:18.728Z,11.40
2023-01-06T02:18:27.401Z,11.40
2023-01-06T02:21:18.588Z,11.30
2023-01-06T02:24:00.337Z,11.30
2023-01-06T02:26:59.635Z,11.30
2023-01-06T02:30:09.191Z,11.30
2023-01-06T02:33:13.741Z,11.40
2023-01-06T02:35:57.417Z,11.40
2023-01-06T02:38:34.759Z,11.30
2023-01-06T02:41:12.241Z,11.40
2023-01-06T02:43:49.846Z,11.40
2023-01-06T02:46:30.172Z,11.30
2023-01-06T02:49:10.222Z,11.20
2023-01-06T02:51:46.929Z,11.30
2023-01-06T02:54:20.241Z,11.30
2023-01-06T02:56:51.794Z,11.50
2023-01-06T02:59:23.522Z,11.40
2023-01-06T03:01:52.019Z,11.40
2023-01-06T03:04:25.117Z,11.50
2023-01-06T03:06:54.828Z,11.50
2023-01-06T03:09:27.489Z,11.40
2023-01-06T03:11:54.542Z,11.40
2023-01-06T03:14:26.528Z,11.40
2023-01-06T03:16:54.055Z,11.20
2023-01-06T03:19:23.413Z,11.10
2023-01-06T03:21:51.958Z,11.10
2023-01-06T03:24:19.202Z,11.20
2023-01-06T03:26:48.206Z,11.30
2023-01-06T03:29:17.917Z,11.50
2023-01-06T03:31:53.576Z,11.40
2023-01-06T03:34:29.516Z,11.30
2023-01-06T03:37:04.140Z,11.20
2023-01-06T03:39:36.753Z,11.20
2023-01-06T03:42:27.413Z,11.30
2023-01-06T03:45:10.435Z,11.30
2023-01-06T03:47:49.213Z,11.40
2023-01-06T03:50:24.075Z,11.50
2023-01-06T03:52:53.488Z,11.50
2023-01-06T03:55:23.517Z,11.40
2023-01-06T03:57:56.340Z,11.20
2023-01-06T04:00:27.062Z,11.10
2023-01-06T04:02:54.432Z,11.00
2023-01-06T04:05:25.354Z,11.00
2023-01-06T04:07:52.614Z,11.20
2023-01-06T04:10:21.349Z,11.20
2023-01-06T04:12:48.795Z,11.20
2023-01-06T04:15:18.372Z,11.30
2023-01-06T04:17:46.841Z,11.20
2023-01-06T04:20:15.809Z,11.20
2023-01-06T04:22:44.539Z,11.20
2023-01-06T04:25:11.776Z,11.40
2023-01-06T04:27:38.772Z,11.40
2023-01-06T04:30:07.339Z,11.50
2023-01-06T04:32:34.353Z,11.30
2023-01-06T04:35:01.337Z,11.30
2023-01-06T04:37:28.393Z,11.40
2023-01-06T04:39:56.769Z,11.40
2023-01-06T04:42:24.103Z,11.50
2023-01-06T04:44:51.187Z,11.30
2023-01-06T04:47:18.344Z,11.20
2023-01-06T04:49:45.385Z,11.40
2023-01-06T04:52:12.446Z,11.30
2023-01-06T04:54:39.439Z,11.40
2023-01-06T04:57:07.792Z,11.30
2023-01-06T04:59:34.828Z,11.30
2023-01-06T05:02:01.867Z,11.40
2023-01-06T05:04:34.193Z,11.50
2023-01-06T05:07:04.107Z,11.40
2023-01-06T05:09:31.095Z,11.40
2023-01-06T05:11:58.051Z,11.30
2023-01-06T05:14:26.458Z,11.40
2023-01-06T05:16:53.406Z,11.40
2023-01-06T05:19:20.512Z,11.50
2023-01-06T05:21:47.451Z,11.50
2023-01-06T05:24:14.580Z,11.50
2023-01-06T05:26:41.555Z,11.50
2023-01-06T05:29:12.273Z,11.40
2023-01-06T05:31:40.688Z,11.40
2023-01-06T05:34:07.777Z,11.40
2023-01-06T05:36:34.755Z,11.40
2023-01-06T05:39:01.697Z,11.40
2023-01-06T05:41:28.692Z,11.40
2023-01-06T05:43:56.925Z,11.50
2023-01-06T05:46:23.899Z,11.40
2023-01-06T05:48:52.258Z,11.40
2023-01-06T05:51:19.254Z,11.50
2023-01-06T05:53:48.079Z,11.60
2023-01-06T05:56:16.708Z,11.50
2023-01-06T05:58:45.639Z,11.60
2023-01-06T06:01:17.496Z,11.60
2023-01-06T06:03:44.926Z,11.70
2023-01-06T06:06:13.398Z,11.70
2023-01-06T06:08:40.508Z,11.70
2023-01-06T06:11:09.406Z,11.60
2023-01-06T06:13:36.695Z,11.80
2023-01-06T06:16:05.423Z,11.80
2023-01-06T06:18:32.525Z,11.80
2023-01-06T06:21:02.987Z,11.60
2023-01-06T06:23:31.784Z,11.50
2023-01-06T06:25:58.842Z,11.50
2023-01-06T06:28:25.886Z,11.50
2023-01-06T06:30:55.383Z,11.50
2023-01-06T06:33:22.670Z,11.50
2023-01-06T06:35:56.881Z,11.50
2023-01-06T06:38:23.921Z,11.50
2023-01-06T06:40:52.375Z,11.40
2023-01-06T06:43:19.784Z,11.40
2023-01-06T06:45:47.248Z,11.40
2023-01-06T06:48:14.904Z,11.40
2023-01-06T06:50:42.005Z,11.30
2023-01-06T06:53:09.052Z,11.40
2023-01-06T06:55:36.182Z,11.40
2023-01-06T06:58:04.780Z,11.40
2023-01-06T07:00:31.857Z,11.40
2023-01-06T07:02:58.867Z,11.40
2023-01-06T07:05:25.907Z,11.40
2023-01-06T07:07:52.894Z,11.30
2023-01-06T07:10:19.862Z,11.30
2023-01-06T07:12:46.810Z,11.50
2023-01-06T07:15:15.443Z,11.40
2023-01-06T07:17:42.532Z,11.50
2023-01-06T07:20:10.509Z,11.50
2023-01-06T07:22:37.981Z,11.40
2023-01-06T07:25:06.455Z,11.30
2023-01-06T07:27:33.688Z,11.30
2023-01-06T07:30:00.748Z,11.20
2023-01-06T07:32:29.065Z,11.30
2023-01-06T07:34:56.199Z,11.20
2023-01-06T07:37:23.226Z,11.10
2023-01-06T07:39:50.402Z,11.10
2023-01-06T07:42:17.398Z,11.00
2023-01-06T07:44:44.378Z,11.00
2023-01-06T07:47:11.486Z,10.90
2023-01-06T07:49:39.969Z,10.90
2023-01-06T07:52:07.390Z,11.00
2023-01-06T07:54:34.707Z,11.00
2023-01-06T07:57:01.796Z,11.00
2023-01-06T07:59:28.965Z,10.90
2023-01-06T08:01:56.160Z,10.90
2023-01-06T08:04:23.377Z,10.80
2023-01-06T08:06:51.844Z,10.90
2023-01-06T08:09:18.851Z,10.90
2023-01-06T08:11:45.906Z,10.90
2023-01-06T08:14:13.044Z,10.90
2023-01-06T08:16:40.510Z,10.90
2023-01-06T08:19:07.642Z,10.90
2023-01-06T08:21:34.684Z,10.90
2023-01-06T08:24:03.178Z,10.90
2023-01-06T08:26:30.318Z,11.00
2023-01-06T08:28:57.377Z,11.10
2023-01-06T08:31:24.500Z,11.20
2023-01-06T08:33:51.529Z,11.00
2023-01-06T08:36:20.409Z,10.90
2023-01-06T08:38:48.241Z,10.80
2023-01-06T08:41:16.935Z,10.80
2023-01-06T08:43:45.911Z,10.70
2023-01-06T08:46:15.321Z,10.70
2023-01-06T08:48:42.553Z,10.80
2023-01-06T08:51:13.506Z,10.80
2023-01-06T08:53:40.859Z,10.80
2023-01-06T08:56:12.603Z,10.70
2023-01-06T08:58:41.091Z,10.80
2023-01-06T09:01:14.825Z,10.80
2023-01-06T09:03:41.880Z,10.80
2023-01-06T09:06:08.874Z,10.90
2023-01-06T09:08:36.021Z,10.90
2023-01-06T09:11:05.381Z,10.90
2023-01-06T09:13:32.481Z,10.90
2023-01-06T09:16:00.992Z,11.00
2023-01-06T09:18:28.111Z,11.00
2023-01-06T09:20:55.086Z,10.90
2023-01-06T09:23:22.167Z,10.90
2023-01-06T09:25:49.231Z,11.00
2023-01-06T09:28:16.304Z,11.00
2023-01-06T09:30:43.405Z,11.00
2023-01-06T09:33:11.759Z,10.90
2023-01-06T09:35:38.741Z,11.00
2023-01-06T09:38:05.934Z,11.00
2023-01-06T09:40:43.810Z,11.00
2023-01-06T09:43:20.800Z,11.10
2023-01-06T09:45:51.956Z,11.10
2023-01-06T09:48:26.336Z,11.00
2023-01-06T09:50:57.181Z,11.10
2023-01-06T09:53:27.068Z,11.10
2023-01-06T09:55:58.101Z,11.10
2023-01-06T09:58:31.562Z,11.10
2023-01-06T10:01:02.730Z,11.10
2023-01-06T10:03:31.240Z,11.10
2023-01-06T10:06:17.204Z,11.00
2023-01-06T10:08:54.191Z,11.00
2023-01-06T10:11:29.464Z,11.10
2023-01-06T10:14:08.975Z,11.10
2023-01-06T10:16:49.100Z,11.20
2023-01-06T10:19:27.705Z,11.20
2023-01-06T10:22:04.067Z,11.20
2023-01-06T10:24:53.125Z,11.30
2023-01-06T10:27:27.476Z,11.30
2023-01-06T10:29:56.255Z,11.20
2023-01-06T10:32:27.740Z,11.30
2023-01-06T10:34:56.995Z,11.30
2023-01-06T10:37:27.996Z,11.30
2023-01-06T10:40:03.246Z,11.20
2023-01-06T10:42:37.964Z,11.10
2023-01-06T10:45:07.161Z,11.10
2023-01-06T10:47:34.459Z,11.10
2023-01-06T10:50:02.897Z,11.10
2023-01-06T10:52:31.967Z,11.10
2023-01-06T10:55:04.682Z,11.00
2023-01-06T10:57:38.408Z,11.00
2023-01-06T11:00:11.500Z,10.90
2023-01-06T11:02:42.897Z,11.00
2023-01-06T11:05:15.847Z,10.90
2023-01-06T11:07:55.110Z,11.00
2023-01-06T11:10:29.080Z,11.10
2023-01-06T11:12:58.776Z,11.10
2023-01-06T11:15:34.556Z,11.20
2023-01-06T11:18:02.256Z,11.20
2023-01-06T11:20:33.134Z,11.20
2023-01-06T11:23:21.627Z,11.30
2023-01-06T11:26:05.677Z,11.50
2023-01-06T11:28:32.987Z,11.60
2023-01-06T11:31:03.623Z,11.50
2023-01-06T11:33:32.937Z,11.30
2023-01-06T11:36:08.563Z,11.30
2023-01-06T11:38:42.534Z,11.20
2023-01-06T11:41:11.929Z,11.40
2023-01-06T11:43:43.081Z,11.50
2023-01-06T11:46:13.189Z,11.60
2023-01-06T11:48:46.553Z,11.60
2023-01-06T11:51:15.724Z,11.70
2023-01-06T11:53:57.243Z,11.50
2023-01-06T11:56:24.681Z,11.60
2023-01-06T11:59:03.929Z,11.70
2023-01-06T12:01:37.497Z,11.60
2023-01-06T12:04:13.942Z,11.70
2023-01-06T12:06:44.500Z,11.70
2023-01-06T12:09:17.626Z,11.70
2023-01-06T12:11:47.486Z,11.60
2023-01-06T12:14:28.117Z,11.60
2023-01-06T12:17:04.461Z,11.70
2023-01-06T12:19:36.846Z,11.70
2023-01-06T12:22:07.177Z,11.80
2023-01-06T12:24:35.558Z,11.80
2023-01-06T12:27:05.696Z,11.80
2023-01-06T12:29:34.771Z,11.60
2023-01-06T12:32:10.218Z,11.60
2023-01-06T12:34:39.817Z,11.60
2023-01-06T12:37:22.392Z,11.60
2023-01-06T12:39:58.142Z,11.50
2023-01-06T12:42:31.490Z,11.50
2023-01-06T12:45:04.307Z,11.50
2023-01-06T12:47:36.143Z,11.60
2023-01-06T12:50:09.833Z,11.60
2023-01-06T12:52:42.672Z,11.60
2023-01-06T12:55:15.833Z,11.60
2023-01-06T12:57:54.074Z,11.70
2023-01-06T13:00:43.276Z,11.60
2023-01-06T13:03:39.986Z,11.70
2023-01-06T13:06:17.189Z,11.70
2023-01-06T13:09:03.333Z,11.60
2023-01-06T13:11:44.105Z,11.70
2023-01-06T13:14:19.184Z,11.90
2023-01-06T13:16:53.286Z,12.00
2023-01-06T13:19:36.632Z,12.00
2023-01-06T13:22:08.792Z,12.00
2023-01-06T13:24:57.200Z,12.10
2023-01-06T13:27:40.663Z,12.00
2023-01-06T13:30:28.112Z,12.00
2023-01-06T13:33:28.285Z,12.10
2023-01-06T13:36:11.890Z,12.10
2023-01-06T13:38:58.513Z,12.10
2023-01-06T13:41:33.898Z,12.20
2023-01-06T13:44:03.161Z,12.20
2023-01-06T13:46:32.803Z,12.20
2023-01-06T13:49:02.827Z,12.40
2023-01-06T13:51:32.514Z,12.30
2023-01-06T13:53:59.567Z,12.50
2023-01-06T13:56:32.281Z,12.50
2023-01-06T13:59:23.384Z,12.40
2023-01-06T14:01:51.751Z,12.40
2023-01-06T14:04:44.908Z,12.40
2023-01-06T14:07:12.405Z,12.50
2023-01-06T14:09:46.531Z,12.40
2023-01-06T14:12:21.026Z,12.30
2023-01-06T14:15:00.048Z,12.40
2023-01-06T14:17:37.328Z,12.40
2023-01-06T14:20:05.648Z,12.40
2023-01-06T14:22:33.442Z,12.40
2023-01-06T14:25:04.175Z,12.30
2023-01-06T14:28:07.114Z,12.20
2023-01-06T14:30:35.459Z,12.30
2023-01-06T14:33:30.196Z,12.40
2023-01-06T14:36:03.987Z,12.50
2023-01-06T14:38:37.225Z,12.40
2023-01-06T14:41:06.677Z,12.30
2023-01-06T14:43:46.271Z,12.40
2023-01-06T14:46:18.789Z,12.50
2023-01-06T14:48:51.877Z,12.60
2023-01-06T14:51:21.856Z,12.50
2023-01-06T14:54:01.141Z,12.50
2023-01-06T14:56:30.428Z,12.40
2023-01-06T14:59:10.908Z,12.40
2023-01-06T15:01:39.927Z,12.40
2023-01-06T15:04:19.714Z,12.40
2023-01-06T15:07:00.665Z,12.20
2023-01-06T15:09:28.170Z,12.20
2023-01-06T15:11:55.379Z,12.40
2023-01-06T15:14:32.175Z,12.50
2023-01-06T15:17:02.731Z,12.40
2023-01-06T15:19:29.888Z,12.40
2023-01-06T15:21:58.440Z,12.30
2023-01-06T15:24:27.233Z,12.20
2023-01-06T15:26:56.554Z,12.40
2023-01-06T15:29:25.861Z,12.40
2023-01-06T15:31:54.891Z,12.40
2023-01-06T15:34:27.159Z,12.20
2023-01-06T15:36:56.009Z,12.30
2023-01-06T15:39:27.065Z,12.20
2023-01-06T15:41:55.020Z,12.30
2023-01-06T15:44:26.211Z,12.10
2023-01-06T15:47:02.292Z,12.10
2023-01-06T15:49:31.933Z,12.10
2023-01-06T15:52:02.946Z,12.10
2023-01-06T15:54:31.814Z,12.10
2023-01-06T15:57:11.536Z,12.30
2023-01-06T15:59:50.888Z,12.50
2023-01-06T16:02:30.808Z,12.50
2023-01-06T16:04:58.338Z,12.40
2023-01-06T16:07:37.400Z,12.30
2023-01-06T16:10:20.067Z,12.40
2023-01-06T16:13:02.717Z,12.30
2023-01-06T16:15:44.024Z,12.40
2023-01-06T16:18:12.627Z,12.50
2023-01-06T16:20:39.761Z,12.50
2023-01-06T16:23:06.792Z,12.60
2023-01-06T16:25:35.108Z,12.50
2023-01-06T16:28:04.896Z,12.50
2023-01-06T16:30:33.414Z,12.40
2023-01-06T16:33:00.738Z,12.30
2023-01-06T16:35:30.824Z,12.20
2023-01-06T16:37:58.247Z,12.20
2023-01-06T16:40:27.624Z,12.10
2023-01-06T16:42:58.327Z,12.20
2023-01-06T16:45:34.306Z,12.10
2023-01-06T16:48:01.644Z,12.00
2023-01-06T16:50:33.843Z,12.10
2023-01-06T16:53:12.930Z,12.10
2023-01-06T16:55:41.492Z,12.10
2023-01-06T16:58:16.812Z,12.00
2023-01-06T17:00:44.605Z,12.00
2023-01-06T17:03:14.269Z,12.00
2023-01-06T17:05:43.033Z,11.90
2023-01-06T17:08:13.965Z,11.90
2023-01-06T17:10:41.808Z,11.90
2023-01-06T17:13:16.838Z,11.90
2023-01-06T17:15:44.527Z,12.00
2023-01-06T17:18:26.797Z,12.00
2023-01-06T17:21:15.597Z,11.90
2023-01-06T17:23:51.111Z,11.80
2023-01-06T17:26:21.896Z,11.90
2023-01-06T17:28:52.053Z,11.80
2023-01-06T17:31:30.187Z,11.80
2023-01-06T17:34:14.568Z,11.80
2023-01-06T17:36:51.957Z,11.70
2023-01-06T17:39:24.030Z,11.70
2023-01-06T17:42:22.543Z,11.70
2023-01-06T17:45:02.985Z,11.80
2023-01-06T17:47:45.757Z,11.80
2023-01-06T17:50:33.751Z,11.80
2023-01-06T17:53:12.653Z,11.70
2023-01-06T17:55:45.950Z,11.70
2023-01-06T17:58:15.593Z,11.80
2023-01-06T18:00:42.943Z,11.80
2023-01-06T18:03:17.744Z,11.80
2023-01-06T18:06:07.665Z,11.80
2023-01-06T18:08:38.069Z,11.80
2023-01-06T18:11:25.181Z,11.70
2023-01-06T18:13:52.825Z,11.60
2023-01-06T18:16:31.213Z,11.50
2023-01-06T18:19:17.750Z,11.60
2023-01-06T18:21:44.693Z,11.60
2023-01-06T18:24:22.375Z,11.60
2023-01-06T18:26:52.674Z,11.70
2023-01-06T18:29:23.237Z,11.70
2023-01-06T18:31:52.356Z,11.70
2023-01-06T18:34:28.810Z,11.60
2023-01-06T18:36:57.746Z,11.60
2023-01-06T18:39:29.163Z,11.70
2023-01-06T18:42:17.005Z,11.60
2023-01-06T18:44:44.271Z,11.50
2023-01-06T18:47:15.993Z,11.60
2023-01-06T18:49:43.274Z,11.70
2023-01-06T18:52:37.391Z,11.70
2023-01-06T18:55:26.832Z,11.70
2023-01-06T18:57:59.407Z,11.70
2023-01-06T19:00:35.324Z,11.70
2023-01-06T19:03:26.672Z,11.70
2023-01-06T19:05:58.754Z,11.70
2023-01-06T19:08:32.610Z,11.80
2023-01-06T19:11:01.511Z,11.80
2023-01-06T19:13:29.720Z,11.90
2023-01-06T19:16:02.222Z,12.00
2023-01-06T19:18:32.786Z,11.80
2023-01-06T19:21:02.707Z,11.80
2023-01-06T19:23:32.268Z,11.70
2023-01-06T19:26:05.228Z,11.70
2023-01-06T19:28:34.459Z,11.70
2023-01-06T19:31:02.899Z,11.70
2023-01-06T19:33:36.023Z,11.80
2023-01-06T19:36:48.435Z,11.80
2023-01-06T19:39:24.942Z,11.60
2023-01-06T19:41:54.924Z,11.60
2023-01-06T19:44:31.690Z,11.60
2023-01-06T19:47:00.735Z,11.70
2023-01-06T19:49:37.112Z,11.70
2023-01-06T19:52:19.312Z,11.80
2023-01-06T19:54:46.360Z,11.80
2023-01-06T19:57:24.967Z,11.80
2023-01-06T20:00:03.341Z,11.70
2023-01-06T20:02:35.556Z,11.80
2023-01-06T20:05:09.840Z,11.70
2023-01-06T20:07:42.507Z,11.70
2023-01-06T20:10:15.026Z,11.70
2023-01-06T20:12:44.846Z,11.60
2023-01-06T20:15:12.825Z,11.70
2023-01-06T20:17:39.848Z,11.60
2023-01-06T20:20:07.874Z,11.60
2023-01-06T20:22:34.853Z,11.50
2023-01-06T20:25:01.839Z,11.50
2023-01-06T20:27:28.802Z,11.70
2023-01-06T20:29:57.227Z,11.70
2023-01-06T20:32:24.195Z,11.70
2023-01-06T20:34:51.188Z,11.70
2023-01-06T20:37:18.140Z,11.70
2023-01-06T20:39:45.141Z,11.70
2023-01-06T20:42:13.409Z,11.70
2023-01-06T20:44:40.635Z,11.70
2023-01-06T20:47:09.010Z,11.80
2023-01-06T20:49:35.999Z,11.60
2023-01-06T20:52:02.973Z,11.70
2023-01-06T20:54:30.068Z,11.60
2023-01-06T20:56:57.075Z,11.50
2023-01-06T20:59:24.248Z,11.50
2023-01-06T21:01:52.696Z,11.60
2023-01-06T21:04:21.153Z,11.50
2023-01-06T21:06:48.110Z,11.40
2023-01-06T21:09:15.216Z,11.40
2023-01-06T21:11:42.318Z,11.50
2023-01-06T21:14:09.311Z,11.50
2023-01-06T21:16:36.347Z,11.40
2023-01-06T21:19:03.428Z,11.50
2023-01-06T21:21:34.862Z,11.40
2023-01-06T21:24:01.810Z,11.50
2023-01-06T21:26:28.784Z,11.60
2023-01-06T21:28:55.805Z,11.40
2023-01-06T21:31:22.871Z,11.40
2023-01-06T21:33:49.881Z,11.30
2023-01-06T21:36:16.872Z,11.30
2023-01-06T21:38:45.232Z,11.40
2023-01-06T21:41:12.497Z,11.40
2023-01-06T21:43:39.421Z,11.30
2023-01-06T21:46:06.612Z,11.30
2023-01-06T21:48:33.728Z,11.50
2023-01-06T21:51:00.835Z,11.40
2023-01-06T21:53:28.242Z,11.40
2023-01-06T21:55:56.737Z,11.40
2023-01-06T21:58:23.737Z,11.40
2023-01-06T22:00:50.865Z,11.30
2023-01-06T22:03:17.987Z,11.40
2023-01-06T22:05:45.334Z,11.50
2023-01-06T22:08:12.465Z,11.50
2023-01-06T22:10:42.181Z,11.40
2023-01-06T22:13:13.974Z,11.30
2023-01-06T22:15:42.047Z,11.40
2023-01-06T22:18:09.501Z,11.50
2023-01-06T22:20:37.250Z,11.40
2023-01-06T22:23:07.674Z,11.40
2023-01-06T22:25:34.685Z,11.50
2023-01-06T22:28:01.676Z,11.40
2023-01-06T22:30:30.289Z,11.50
2023-01-06T22:32:57.587Z,11.60
2023-01-06T22:35:24.733Z,11.50
2023-01-06T22:37:51.708Z,11.50
2023-01-06T22:40:18.867Z,11.60
2023-01-06T22:42:45.803Z,11.50
2023-01-06T22:45:13.484Z,11.50
2023-01-06T22:47:41.938Z,11.50
2023-01-06T22:50:09.450Z,11.50
2023-01-06T22:52:36.555Z,11.50
2023-01-06T22:55:04.236Z,11.40
2023-01-06T22:57:31.228Z,11.40
2023-01-06T22:59:58.739Z,11.40
2023-01-06T23:02:26.455Z,11.50
2023-01-06T23:04:54.869Z,11.50
2023-01-06T23:07:22.205Z,11.40
2023-01-06T23:09:49.203Z,11.40
2023-01-06T23:12:16.490Z,11.30
2023-01-06T23:14:43.528Z,11.40
2023-01-06T23:17:11.631Z,11.40
2023-01-06T23:19:38.645Z,11.40
2023-01-06T23:22:07.043Z,11.30
2023-01-06T23:24:33.998Z,11.40
2023-01-06T23:27:01.128Z,11.50
2023-01-06T23:29:28.420Z,11.40
2023-01-06T23:31:55.573Z,11.30
2023-01-06T23:34:22.569Z,11.40
2023-01-06T23:36:50.102Z,11.50
2023-01-06T23:39:18.710Z,11.50
2023-01-06T23:41:45.779Z,11.50
2023-01-06T23:44:14.713Z,11.40
2023-01-06T23:46:42.620Z,11.40
2023-01-06T23:49:11.461Z,11.50
2023-01-06T23:51:39.544Z,11.50
2023-01-06T23:54:07.057Z,11.50
2023-01-06T23:56:36.833Z,11.30
2023-01-06T23:59:05.558Z,11.20
